Time;durP1;ratioP1;P1;durP2;ratioP2;P2;SDS_P1;SDS_P2;PMS_P1;PMS_P2;Temp;Humidity;BMP_temperature;BMP_pressure;BME280_temperature;BME280_humidity;BME280_pressure;Samples;Min_cycle;Max_cycle;Signal;HPM_P1;HPM_P2
2021/12/26 00:02:03;;;;;;;;;;;;;;;-9.44;78.29;100310.30;84668;1328;23699;-72
2021/12/26 00:04:16;;;;;;;45.50;17.30;;;;;;;-9.44;78.38;100310.11;84711;1328;22709;-73
2021/12/26 00:06:28;;;;;;;44.40;17.70;;;;;;;-9.46;78.25;100310.89;84648;1328;22644;-72
2021/12/26 00:08:40;;;;;;;46.90;19.30;;;;;;;-9.52;78.28;100311.81;84676;1329;23968;-73
2021/12/26 00:10:54;;;;;;;45.40;19.20;;;;;;;-9.59;78.10;100312.35;84705;1329;24280;-72
2021/12/26 00:13:04;;;;;;;57.80;22.40;;;;;;;-9.67;78.20;100310.36;84661;1328;22696;-73
2021/12/26 00:15:12;;;;;;;;;;;;;;;-9.72;78.18;100315.84;84004;1329;1016596;-72
2021/12/26 00:17:22;;;;;;;42.70;17.00;;;;;;;-9.80;78.16;100320.73;83948;1329;1002978;-71
2021/12/26 00:19:35;;;;;;;47.80;18.30;;;;;;;-9.87;78.13;100318.78;83912;1329;1003998;-72
2021/12/26 00:21:45;;;;;;;45.40;17.70;;;;;;;-9.90;78.25;100324.38;84657;1329;22628;-72
2021/12/26 00:23:58;;;;;;;36.70;16.30;;;;;;;-9.92;78.34;100326.33;83955;1328;1003192;-71
2021/12/26 00:26:08;;;;;;;39.70;17.50;;;;;;;-9.92;78.52;100328.02;84670;1329;24288;-71
2021/12/26 00:28:21;;;;;;;27.60;14.10;;;;;;;-9.92;78.50;100326.17;84646;1328;22607;-72
2021/12/26 00:30:30;;;;;;;35.10;16.60;;;;;;;-9.89;78.70;100323.27;84666;1328;22892;-73
2021/12/26 00:32:43;;;;;;;45.30;17.10;;;;;;;-9.82;78.75;100314.05;84667;1328;24467;-73
2021/12/26 00:34:53;;;;;;;41.50;16.60;;;;;;;-9.77;78.83;100314.46;84663;1328;25445;-72
2021/12/26 00:37:03;;;;;;;37.90;14.80;;;;;;;-9.72;78.84;100313.17;84577;1330;23438;-72
2021/12/26 00:39:15;;;;;;;35.10;15.40;;;;;;;-9.66;78.73;100316.61;84668;1330;22646;-73
2021/12/26 00:41:28;;;;;;;41.10;16.70;;;;;;;-9.62;78.74;100316.60;84661;1328;22625;-72
2021/12/26 00:43:37;;;;;;;44.00;17.10;;;;;;;-9.59;78.68;100318.61;84664;1329;23942;-74
2021/12/26 00:45:46;;;;;;;37.00;15.90;;;;;;;-9.55;78.69;100319.28;84557;1331;25280;-74
2021/12/26 00:47:58;;;;;;;35.30;16.30;;;;;;;-9.49;78.68;100318.15;84662;1328;22599;-73
2021/12/26 00:50:10;;;;;;;36.10;15.00;;;;;;;-9.49;78.49;100323.77;84648;1329;22690;-72
2021/12/26 00:52:22;;;;;;;42.90;16.10;;;;;;;-9.49;78.33;100323.26;84639;1328;22606;-74
2021/12/26 00:54:31;;;;;;;44.40;16.20;;;;;;;-9.47;78.26;100323.84;84646;1328;22601;-73
2021/12/26 00:56:40;;;;;;;38.40;17.00;;;;;;;-9.48;78.22;100325.98;84640;1329;24303;-73
2021/12/26 00:58:54;;;;;;;41.50;17.60;;;;;;;-9.49;78.08;100328.14;84667;1328;22679;-73
2021/12/26 01:01:03;;;;;;;40.30;17.10;;;;;;;-9.52;78.10;100335.95;84686;1322;22906;-73
2021/12/26 01:03:13;;;;;;;40.30;17.00;;;;;;;-9.55;77.96;100336.83;84669;1325;22942;-73
2021/12/26 01:05:25;;;;;;;38.40;18.30;;;;;;;-9.62;77.99;100331.84;83956;1328;1003783;-73
2021/12/26 01:07:46;;;;;;;36.90;16.30;;;;;;;-9.69;77.94;100328.16;84668;1328;24943;-73
2021/12/26 01:09:55;;;;;;;41.60;16.90;;;;;;;-9.76;77.98;100327.51;83937;1329;1003866;-74
2021/12/26 01:12:14;;;;;;;38.40;18.50;;;;;;;-9.83;78.14;100324.34;84667;1329;24300;-74
2021/12/26 01:14:27;;;;;;;42.60;18.60;;;;;;;-9.93;78.22;100322.08;84656;1331;22628;-72
2021/12/26 01:16:39;;;;;;;45.90;18.30;;;;;;;-9.98;78.15;100328.27;84645;1329;22598;-72
2021/12/26 01:18:51;;;;;;;43.50;17.40;;;;;;;-10.03;78.11;100327.70;84640;1327;22634;-71
2021/12/26 01:21:04;;;;;;;37.00;16.40;;;;;;;-10.07;78.42;100331.91;84694;1327;23848;-73
2021/12/26 01:23:15;;;;;;;41.60;18.10;;;;;;;-10.05;78.49;100331.86;83949;1329;1016041;-74
2021/12/26 01:25:27;;;;;;;37.60;15.80;;;;;;;-10.02;78.52;100332.63;84661;1324;22630;-72
2021/12/26 01:27:36;;;;;;;38.60;15.50;;;;;;;-10.00;78.71;100335.08;84653;1328;23946;-72
2021/12/26 01:29:48;;;;;;;28.20;13.50;;;;;;;-9.96;78.78;100332.92;84758;1327;24241;-74
2021/12/26 01:31:57;;;;;;;40.20;16.40;;;;;;;-9.92;78.80;100330.20;84684;1327;22630;-73
2021/12/26 01:34:09;;;;;;;39.60;16.00;;;;;;;-9.88;78.99;100329.20;84718;1327;22570;-74
2021/12/26 01:36:18;;;;;;;35.30;15.30;;;;;;;-9.83;78.83;100326.36;84724;1325;22730;-71
2021/12/26 01:38:30;;;;;;;43.90;17.30;;;;;;;-9.81;78.82;100325.25;84709;1327;22619;-71
2021/12/26 01:40:41;;;;;;;38.50;16.90;;;;;;;-9.78;78.77;100324.05;84762;1327;22668;-71
2021/12/26 01:42:51;;;;;;;39.00;16.40;;;;;;;-9.72;78.82;100322.10;84727;1324;22616;-71
2021/12/26 01:45:06;;;;;;;36.10;14.40;;;;;;;-9.68;78.81;100317.56;84659;1329;22604;-74
2021/12/26 01:47:15;;;;;;;33.50;15.20;;;;;;;-9.67;78.74;100320.30;84719;1327;22709;-74
2021/12/26 01:49:26;;;;;;;41.50;16.50;;;;;;;-9.64;78.66;100321.96;84754;1321;22614;-71
2021/12/26 01:51:35;;;;;;;41.00;15.70;;;;;;;-9.62;78.57;100322.20;84743;1327;25451;-71
2021/12/26 01:53:44;;;;;;;38.40;15.90;;;;;;;-9.62;78.36;100319.16;84704;1329;22545;-71
2021/12/26 01:55:55;;;;;;;39.20;15.90;;;;;;;-9.61;78.33;100324.08;84756;1327;22591;-74
2021/12/26 01:58:04;;;;;;;45.90;17.70;;;;;;;-9.62;78.31;100325.91;84708;1327;22594;-73
2021/12/26 02:00:14;;;;;;;42.00;19.10;;;;;;;-9.66;78.25;100325.58;84701;1329;22837;-71
2021/12/26 02:02:26;;;;;;;44.00;18.00;;;;;;;-9.71;78.22;100331.27;84003;1324;1003278;-71
2021/12/26 02:04:35;;;;;;;42.90;19.90;;;;;;;-9.77;78.00;100332.35;84663;1329;22654;-71
2021/12/26 02:06:47;;;;;;;39.50;17.90;;;;;;;-9.85;78.09;100331.52;84589;1329;22626;-71
2021/12/26 02:08:57;;;;;;;41.00;17.80;;;;;;;-9.92;78.13;100326.86;84706;1321;22800;-72
2021/12/26 02:11:09;;;;;;;37.70;17.80;;;;;;;-9.99;78.20;100327.38;83997;1325;1003824;-72
2021/12/26 02:13:18;;;;;;;41.10;18.30;;;;;;;-10.05;78.44;100329.96;84662;1330;22604;-72
2021/12/26 02:15:27;;;;;;;49.30;19.00;;;;;;;-10.10;78.33;100334.48;84763;1327;24253;-70
2021/12/26 02:17:36;;;;;;;42.60;17.30;;;;;;;-10.13;78.36;100335.55;84641;1328;22606;-69
2021/12/26 02:19:48;;;;;;;41.80;18.50;;;;;;;-10.14;78.38;100331.46;84764;1328;23977;-74
2021/12/26 02:22:08;;;;;;;44.10;16.40;;;;;;;-10.13;78.62;100328.45;84747;1327;24234;-73
2021/12/26 02:24:23;;;;;;;39.90;18.00;;;;;;;-10.11;78.44;100333.58;84760;1327;22614;-70
2021/12/26 02:29:01;;;;;;;36.80;16.30;;;;;;;-10.06;78.84;100331.10;83955;1324;1016709;-70
2021/12/26 02:31:11;;;;;;;41.00;17.40;;;;;;;-10.02;78.92;100327.05;84721;1329;22624;-70
2021/12/26 02:33:23;;;;;;;38.80;16.70;;;;;;;-9.98;79.03;100333.14;84706;1327;22577;-70
2021/12/26 02:35:35;;;;;;;45.60;17.20;;;;;;;-9.92;79.13;100337.29;84664;1329;22758;-73
2021/12/26 02:37:44;;;;;;;35.30;16.40;;;;;;;-9.87;78.96;100340.70;84688;1328;23695;-73
2021/12/26 02:39:53;;;;;;;36.10;16.50;;;;;;;-9.88;78.78;100341.20;84651;1328;24363;-70
2021/12/26 02:42:06;;;;;;;42.10;17.80;;;;;;;-9.84;78.87;100340.48;84659;1329;22884;-70
2021/12/26 02:44:15;;;;;;;40.70;17.00;;;;;;;-9.82;78.73;100346.64;84739;1331;24092;-72
2021/12/26 02:46:24;;;;;;;31.00;15.00;;;;;;;-9.81;78.81;100345.52;84694;1328;22575;-73
2021/12/26 02:48:33;;;;;;;41.40;16.80;;;;;;;-9.78;78.71;100346.83;84687;1329;22767;-73
2021/12/26 02:50:46;;;;;;;34.10;15.90;;;;;;;-9.75;78.84;100352.03;84719;1329;22876;-73
2021/12/26 02:52:55;;;;;;;42.50;16.10;;;;;;;-9.72;78.69;100353.66;84709;1327;22629;-75
2021/12/26 02:55:09;;;;;;;38.70;15.90;;;;;;;-9.71;78.78;100350.00;84682;1328;26631;-71
2021/12/26 02:57:21;;;;;;;43.30;16.50;;;;;;;-9.67;78.63;100352.04;84713;1321;22901;-71
2021/12/26 02:59:34;;;;;;;34.40;15.10;;;;;;;-9.62;78.86;100347.02;84704;1329;22851;-74
2021/12/26 03:01:46;;;;;;;33.50;17.10;;;;;;;-9.58;78.79;100345.16;84710;1329;23908;-74
2021/12/26 03:03:55;;;;;;;39.60;16.00;;;;;;;-9.57;78.70;100349.08;84719;1328;22746;-73
2021/12/26 03:06:16;;;;;;;39.90;16.30;;;;;;;-9.59;78.62;100348.30;84594;1329;22824;-73
2021/12/26 03:08:25;;;;;;;42.30;18.00;;;;;;;-9.66;78.47;100352.27;84692;1329;23945;-74
2021/12/26 03:10:39;;;;;;;34.40;16.80;;;;;;;-9.73;78.34;100353.46;84703;1327;22628;-71
2021/12/26 03:12:48;;;;;;;39.30;17.50;;;;;;;-9.80;78.50;100352.66;84703;1329;22799;-69
2021/12/26 03:15:00;;;;;;;39.20;16.60;;;;;;;-9.86;78.49;100352.91;84002;1327;1003378;-73
2021/12/26 03:17:13;;;;;;;41.80;16.60;;;;;;;-9.94;78.52;100352.56;83938;1330;1003710;-75
2021/12/26 03:19:25;;;;;;;36.60;16.20;;;;;;;-10.01;78.68;100354.46;84683;1330;24010;-74
2021/12/26 03:21:37;;;;;;;39.90;16.80;;;;;;;-10.05;78.44;100356.62;84709;1328;22860;-75
2021/12/26 03:23:49;;;;;;;38.40;16.50;;;;;;;-10.10;78.46;100356.07;84704;1327;22947;-74
2021/12/26 03:26:00;;;;;;;36.80;15.20;;;;;;;-10.13;78.58;100358.32;84683;1329;22636;-71
2021/12/26 03:28:10;;;;;;;37.60;15.70;;;;;;;-10.13;78.70;100357.61;84669;1327;22696;-70
2021/12/26 03:30:24;;;;;;;35.40;13.10;;;;;;;-10.13;78.82;100358.32;84768;1326;23870;-70
2021/12/26 03:32:34;;;;;;;28.70;14.70;;;;;;;-10.09;78.83;100360.32;84738;1327;23976;-71
2021/12/26 03:34:50;;;;;;;26.30;14.80;;;;;;;-10.05;79.06;100361.01;84734;1327;25303;-71
2021/12/26 03:37:00;;;;;;;40.20;16.10;;;;;;;-10.02;78.94;100362.66;84732;1322;23674;-71
2021/12/26 03:39:10;;;;;;;35.70;14.90;;;;;;;-9.99;78.79;100364.84;83966;1329;1003616;-70
2021/12/26 03:41:22;;;;;;;40.20;14.80;;;;;;;-9.98;78.70;100366.06;83987;1327;1003270;-73
2021/12/26 03:43:32;;;;;;;35.20;15.50;;;;;;;-9.97;78.76;100364.58;84717;1326;25518;-74
2021/12/26 03:45:45;;;;;;;34.10;13.40;;;;;;;-9.98;78.61;100364.89;84756;1327;22614;-70
2021/12/26 03:47:53;;;;;;;29.40;13.70;;;;;;;-9.97;78.48;100361.73;84710;1326;22651;-71
2021/12/26 03:50:03;;;;;;;32.40;14.20;;;;;;;-9.94;78.64;100360.84;84731;1325;26731;-71
2021/12/26 03:52:12;;;;;;;37.00;15.30;;;;;;;-9.91;78.58;100360.95;84722;1325;24132;-71
2021/12/26 03:54:21;;;;;;;34.30;15.10;;;;;;;-9.90;78.35;100359.83;84616;1326;22881;-71
2021/12/26 03:56:34;;;;;;;30.60;13.90;;;;;;;-9.90;78.21;100360.65;84706;1327;22625;-70
2021/12/26 03:58:46;;;;;;;37.00;14.50;;;;;;;-9.91;78.26;100360.10;84742;1327;22634;-70
2021/12/26 04:00:55;;;;;;;37.80;15.00;;;;;;;-9.91;78.24;100361.79;84760;1327;22692;-71
2021/12/26 04:03:04;;;;;;;39.20;14.80;;;;;;;-9.91;78.16;100362.63;84702;1326;22600;-71
2021/12/26 04:05:14;;;;;;;25.10;11.40;;;;;;;-9.93;78.08;100362.23;84758;1326;22602;-71
2021/12/26 04:07:23;;;;;;;27.00;12.40;;;;;;;-9.93;78.12;100362.06;84719;1327;24058;-71
2021/12/26 04:09:32;;;;;;;32.60;15.30;;;;;;;-9.93;78.09;100363.56;84734;1325;22605;-71
2021/12/26 04:11:46;;;;;;;40.70;14.40;;;;;;;-9.95;78.04;100364.83;84704;1327;24161;-71
2021/12/26 04:13:55;;;;;;;39.40;13.80;;;;;;;-9.96;78.05;100363.42;84758;1327;23783;-71
2021/12/26 04:16:07;;;;;;;26.80;13.30;;;;;;;-9.95;78.03;100364.98;84765;1327;22707;-71
2021/12/26 04:18:16;;;;;;;39.60;14.30;;;;;;;-9.96;78.06;100365.48;84728;1327;22749;-70
2021/12/26 04:20:25;;;;;;;40.20;15.40;;;;;;;-9.95;78.10;100366.04;84715;1326;22605;-74
2021/12/26 04:22:33;;;;;;;26.70;13.60;;;;;;;-9.95;77.92;100367.19;84749;1326;22884;-74
2021/12/26 04:24:43;;;;;;;38.40;15.30;;;;;;;-9.94;78.02;100368.29;84736;1326;22593;-74
2021/12/26 04:26:52;;;;;;;35.10;14.60;;;;;;;-9.90;78.08;100366.58;84737;1330;22591;-73
2021/12/26 04:29:01;;;;;;;31.90;15.00;;;;;;;-9.88;78.16;100369.02;84724;1327;22618;-73
2021/12/26 04:31:10;;;;;;;30.00;13.90;;;;;;;-9.87;77.98;100372.27;84726;1327;22613;-73
2021/12/26 04:33:19;;;;;;;34.10;14.10;;;;;;;-9.89;77.98;100376.09;84034;1327;1003043;-73
2021/12/26 04:35:28;;;;;;;33.80;13.90;;;;;;;-9.91;77.77;100376.01;84743;1327;25688;-70
2021/12/26 04:37:37;;;;;;;37.30;14.90;;;;;;;-9.92;77.95;100374.08;84748;1327;24421;-69
2021/12/26 04:39:46;;;;;;;34.10;15.40;;;;;;;-9.92;77.86;100370.20;84759;1326;22812;-71
2021/12/26 04:41:58;;;;;;;30.20;16.10;;;;;;;-9.93;77.89;100367.30;84737;1327;24050;-72
2021/12/26 04:44:08;;;;;;;34.40;14.60;;;;;;;-9.96;77.69;100368.99;84744;1327;22962;-71
2021/12/26 04:46:16;;;;;;;33.00;16.90;;;;;;;-10.02;77.82;100370.27;84732;1327;22590;-71
2021/12/26 04:48:26;;;;;;;41.30;16.80;;;;;;;-10.08;77.66;100368.79;84725;1327;26078;-71
2021/12/26 04:50:35;;;;;;;38.80;17.50;;;;;;;-10.17;77.76;100370.96;84646;1330;24618;-74
2021/12/26 04:52:45;;;;;;;40.10;15.10;;;;;;;-10.24;77.71;100375.52;84745;1327;22596;-74
2021/12/26 04:54:57;;;;;;;35.80;16.30;;;;;;;-10.32;77.88;100379.58;84742;1327;25354;-73
2021/12/26 04:57:07;;;;;;;39.60;17.40;;;;;;;-10.37;77.87;100378.15;84758;1329;22910;-74
2021/12/26 04:59:17;;;;;;;34.50;14.50;;;;;;;-10.42;77.92;100378.81;84772;1327;22663;-71
2021/12/26 05:01:29;;;;;;;39.60;17.00;;;;;;;-10.45;77.84;100380.52;84724;1327;22629;-70
2021/12/26 05:03:38;;;;;;;40.80;16.90;;;;;;;-10.49;78.02;100379.98;84745;1327;22785;-71
2021/12/26 05:05:50;;;;;;;37.30;16.70;;;;;;;-10.50;78.26;100380.57;84735;1327;22587;-71
2021/12/26 05:08:03;;;;;;;36.10;15.40;;;;;;;-10.49;78.30;100382.30;84735;1324;22613;-70
2021/12/26 05:10:15;;;;;;;37.00;16.00;;;;;;;-10.48;78.35;100379.87;84748;1328;25442;-71
2021/12/26 05:12:25;;;;;;;31.30;14.70;;;;;;;-10.47;78.36;100380.59;84745;1325;22678;-72
2021/12/26 05:14:34;;;;;;;35.90;15.40;;;;;;;-10.44;78.40;100381.89;84737;1330;25303;-71
2021/12/26 05:16:46;;;;;;;40.20;16.40;;;;;;;-10.44;78.31;100384.46;84001;1327;1003235;-71
2021/12/26 05:18:55;;;;;;;36.20;14.60;;;;;;;-10.42;78.23;100387.04;84745;1327;22945;-69
2021/12/26 05:21:04;;;;;;;39.20;17.40;;;;;;;-10.40;78.19;100389.52;84033;1327;1003201;-74
2021/12/26 05:23:17;;;;;;;39.90;15.60;;;;;;;-10.36;78.17;100385.94;84721;1327;26529;-73
2021/12/26 05:25:27;;;;;;;37.70;15.80;;;;;;;-10.35;78.23;100385.81;84761;1327;22870;-70
2021/12/26 05:27:36;;;;;;;38.60;16.60;;;;;;;-10.35;78.30;100386.52;84637;1329;25042;-70
2021/12/26 05:29:45;;;;;;;42.60;15.90;;;;;;;-10.33;78.29;100386.96;84723;1330;26581;-74
2021/12/26 05:31:56;;;;;;;38.60;16.50;;;;;;;-10.31;78.04;100388.20;84728;1324;22820;-74
2021/12/26 05:34:06;;;;;;;34.40;16.40;;;;;;;-10.31;78.16;100393.96;84695;1327;22605;-73
2021/12/26 05:36:16;;;;;;;39.60;17.40;;;;;;;-10.30;77.85;100391.62;84705;1330;22590;-69
2021/12/26 05:38:27;;;;;;;46.20;18.20;;;;;;;-10.32;77.99;100395.27;84671;1330;23112;-70
2021/12/26 05:40:37;;;;;;;37.50;16.90;;;;;;;-10.29;78.13;100396.93;83874;1333;1003687;-74
2021/12/26 05:42:46;;;;;;;41.80;16.60;;;;;;;-10.26;78.09;100395.71;84674;1329;22761;-74
2021/12/26 05:44:56;;;;;;;38.70;15.90;;;;;;;-10.25;77.89;100394.20;84731;1329;22617;-70
2021/12/26 05:47:06;;;;;;;40.30;17.60;;;;;;;-10.25;78.03;100393.74;84676;1329;23903;-69
2021/12/26 05:49:18;;;;;;;41.40;16.60;;;;;;;-10.25;77.92;100395.39;84721;1329;22872;-72
2021/12/26 05:51:27;;;;;;;35.60;16.90;;;;;;;-10.25;77.92;100395.58;84699;1329;22601;-76
2021/12/26 05:53:36;;;;;;;37.90;16.50;;;;;;;-10.24;77.83;100399.02;84706;1328;24129;-77
2021/12/26 05:55:46;;;;;;;39.60;16.10;;;;;;;-10.24;77.85;100397.67;84677;1332;23928;-75
2021/12/26 05:57:55;;;;;;;36.60;15.70;;;;;;;-10.23;77.77;100397.15;84715;1331;22620;-75
2021/12/26 06:00:10;;;;;;;38.50;17.60;;;;;;;-10.25;77.65;100395.05;84682;1329;23924;-70
2021/12/26 06:02:20;;;;;;;44.90;16.50;;;;;;;-10.27;77.74;100399.37;84694;1329;22682;-70
2021/12/26 06:04:29;;;;;;;41.80;17.60;;;;;;;-10.28;77.59;100397.63;84694;1328;23929;-76
2021/12/26 06:06:39;;;;;;;39.70;17.90;;;;;;;-10.31;77.60;100401.20;84701;1327;22715;-75
2021/12/26 06:08:49;;;;;;;42.10;17.50;;;;;;;-10.31;77.81;100405.75;84687;1329;22609;-74
2021/12/26 06:10:58;;;;;;;42.50;19.70;;;;;;;-10.32;77.68;100404.05;84692;1325;22890;-74
2021/12/26 06:13:07;;;;;;;38.30;17.60;;;;;;;-10.35;77.57;100405.58;84693;1329;22709;-74
2021/12/26 06:15:16;;;;;;;40.30;17.30;;;;;;;-10.37;77.59;100410.55;84704;1329;22615;-74
2021/12/26 06:17:28;;;;;;;35.50;17.50;;;;;;;-10.39;77.66;100412.00;84696;1330;23200;-76
2021/12/26 06:19:38;;;;;;;43.00;17.40;;;;;;;-10.40;77.66;100415.29;84721;1330;22606;-71
2021/12/26 06:21:47;;;;;;;46.00;17.90;;;;;;;-10.40;77.66;100418.01;84721;1330;22888;-69
2021/12/26 06:23:56;;;;;;;46.50;18.60;;;;;;;-10.35;77.85;100421.44;84667;1330;22657;-69
2021/12/26 06:26:06;;;;;;;48.80;19.60;;;;;;;-10.26;78.30;100422.67;84715;1328;22715;-75
2021/12/26 06:28:14;;;;;;;;;;;;;;;-10.15;78.41;100426.68;84744;1329;22609;-74
2021/12/26 06:30:23;;;;;;;48.40;17.40;;;;;;;-10.05;78.59;100426.46;84728;1327;22773;-75
2021/12/26 06:32:33;;;;;;;38.60;18.40;;;;;;;-9.96;78.47;100431.97;84025;1327;1003329;-73
2021/12/26 06:34:45;;;;;;;;;;;;;;;-9.90;78.46;100434.92;84775;1327;22784;-70
2021/12/26 06:36:55;;;;;;;53.80;21.90;;;;;;;-9.80;78.55;100436.54;84748;1327;22594;-71
2021/12/26 06:39:08;;;;;;;43.80;19.10;;;;;;;-9.70;78.82;100434.63;84713;1326;22616;-69
2021/12/26 06:41:18;;;;;;;48.90;20.00;;;;;;;-9.58;78.82;100435.16;84740;1322;22619;-69
2021/12/26 06:43:28;;;;;;;42.30;18.40;;;;;;;-9.49;79.02;100439.62;84043;1327;1002625;-70
2021/12/26 06:45:38;;;;;;;45.40;21.20;;;;;;;-9.41;78.87;100444.20;84700;1330;22597;-70
2021/12/26 06:47:52;;;;;;;50.10;21.20;;;;;;;-9.29;79.24;100450.26;84721;1327;23875;-70
2021/12/26 06:50:03;;;;;;;44.20;19.80;;;;;;;-9.17;79.21;100449.23;84728;1326;22638;-70
2021/12/26 06:52:16;;;;;;;44.80;20.50;;;;;;;-9.10;79.13;100450.73;84660;1329;24288;-70
2021/12/26 06:54:25;;;;;;;43.20;20.20;;;;;;;-9.01;79.29;100449.38;84693;1330;24260;-75
2021/12/26 06:56:34;;;;;;;48.50;22.20;;;;;;;-8.94;79.46;100449.88;84668;1329;22626;-75
2021/12/26 06:58:47;;;;;;;49.30;23.50;;;;;;;-8.86;79.41;100451.38;84726;1327;22868;-75
2021/12/26 07:00:56;;;;;;;45.80;22.50;;;;;;;-8.81;79.18;100453.60;84725;1327;22584;-74
2021/12/26 07:03:07;;;;;;;50.00;23.70;;;;;;;-8.81;79.05;100454.63;84728;1329;23640;-73
2021/12/26 07:05:16;;;;;;;55.50;23.60;;;;;;;-8.80;79.22;100456.33;84725;1327;25162;-71
2021/12/26 07:07:28;;;;;;;59.70;25.00;;;;;;;-8.76;79.28;100460.39;84713;1330;26047;-71
2021/12/26 07:09:39;;;;;;;60.60;25.10;;;;;;;-8.75;79.39;100462.31;84065;1327;1003898;-72
2021/12/26 07:11:48;;;;;;;58.70;24.30;;;;;;;-8.74;79.41;100464.71;84046;1327;1003731;-70
2021/12/26 07:13:58;;;;;;;54.80;22.60;;;;;;;-8.74;79.32;100465.89;84675;1329;23965;-73
2021/12/26 07:16:08;;;;;;;56.40;25.40;;;;;;;-8.75;79.33;100471.93;84040;1327;1004196;-70
2021/12/26 07:18:17;;;;;;;51.60;23.70;;;;;;;-8.73;79.46;100474.21;84715;1327;24250;-70
2021/12/26 07:20:31;;;;;;;57.60;24.60;;;;;;;-8.70;79.43;100473.84;84671;1330;22634;-71
2021/12/26 07:22:40;;;;;;;50.40;21.20;;;;;;;-8.64;79.61;100474.94;84730;1326;24037;-70
2021/12/26 07:24:53;;;;;;;53.20;22.00;;;;;;;-8.57;79.60;100474.35;84047;1324;1003351;-74
2021/12/26 07:27:02;;;;;;;48.80;21.40;;;;;;;-8.47;79.84;100471.72;84722;1330;25287;-72
2021/12/26 07:29:11;;;;;;;51.00;21.90;;;;;;;-8.37;79.97;100475.33;84733;1327;23920;-72
2021/12/26 07:31:20;;;;;;;56.00;23.40;;;;;;;-8.23;79.99;100482.29;84749;1327;22628;-72
2021/12/26 07:33:30;;;;;;;48.30;21.80;;;;;;;-8.11;79.88;100487.80;84733;1326;22767;-72
2021/12/26 07:35:43;;;;;;;42.70;20.90;;;;;;;-8.03;79.87;100492.02;84762;1327;22594;-70
2021/12/26 07:37:53;;;;;;;45.80;20.30;;;;;;;-7.91;80.08;100497.41;84725;1329;23078;-70
2021/12/26 07:40:03;;;;;;;40.00;19.00;;;;;;;-7.77;79.92;100495.73;84729;1327;25530;-71
2021/12/26 07:42:16;;;;;;;40.90;19.00;;;;;;;-7.66;80.00;100496.66;84659;1331;24547;-70
2021/12/26 07:44:25;;;;;;;45.00;19.10;;;;;;;-7.55;80.07;100495.87;84724;1327;22609;-75
2021/12/26 07:46:35;;;;;;;40.00;19.50;;;;;;;-7.47;80.00;100488.17;84732;1327;25262;-74
2021/12/26 07:48:44;;;;;;;42.10;18.70;;;;;;;-7.44;79.87;100487.13;84754;1329;22599;-74
2021/12/26 07:50:54;;;;;;;42.10;19.50;;;;;;;-7.40;80.01;100485.20;84752;1327;22710;-71
2021/12/26 07:53:07;;;;;;;41.80;18.50;;;;;;;-7.38;80.01;100482.91;84727;1327;22627;-70
2021/12/26 07:55:16;;;;;;;46.10;18.80;;;;;;;-7.35;80.15;100485.89;84737;1322;22588;-74
2021/12/26 07:57:25;;;;;;;37.20;18.40;;;;;;;-7.35;80.11;100489.64;84732;1327;22592;-74
2021/12/26 07:59:35;;;;;;;43.50;19.50;;;;;;;-7.33;80.21;100489.19;84733;1327;22598;-75
2021/12/26 08:01:48;;;;;;;45.70;19.40;;;;;;;-7.32;80.17;100488.06;84724;1330;22636;-74
2021/12/26 08:04:00;;;;;;;43.10;20.00;;;;;;;-7.30;80.35;100488.63;84018;1327;1003252;-75
2021/12/26 08:06:13;;;;;;;41.30;18.60;;;;;;;-7.26;80.35;100493.00;84632;1328;24198;-73
2021/12/26 08:08:22;;;;;;;44.20;20.40;;;;;;;-7.24;80.49;100491.23;83940;1328;1002948;-70
2021/12/26 08:10:32;;;;;;;47.10;20.30;;;;;;;-7.19;80.60;100494.95;83894;1332;1003252;-71
2021/12/26 08:12:44;;;;;;;44.40;20.90;;;;;;;-7.15;80.60;100495.39;84660;1331;22719;-72
2021/12/26 08:14:53;;;;;;;59.10;25.50;;;;;;;-7.12;80.64;100499.93;84657;1329;23954;-74
2021/12/26 08:17:02;;;;;;;58.90;26.10;;;;;;;-7.09;80.60;100501.05;84640;1328;23491;-75
2021/12/26 08:19:17;;;;;;;59.40;24.90;;;;;;;-7.03;80.62;100503.30;84617;1329;22824;-74
2021/12/26 08:21:27;;;;;;;49.70;23.80;;;;;;;-6.95;80.65;100504.92;84633;1329;25449;-74
2021/12/26 08:23:40;;;;;;;;;;;;;;;-6.89;80.47;100504.64;83950;1331;1002977;-75
2021/12/26 08:25:49;;;;;;;56.90;23.90;;;;;;;-6.84;80.43;100501.94;84664;1331;22610;-71
2021/12/26 08:28:01;;;;;;;55.70;22.50;;;;;;;-6.73;80.36;100507.39;84641;1331;22611;-72
2021/12/26 08:30:13;;;;;;;59.10;23.70;;;;;;;-6.66;80.24;100513.75;84643;1331;23976;-71
2021/12/26 08:32:22;;;;;;;46.30;22.40;;;;;;;-6.53;80.07;100512.11;84647;1329;22601;-71
2021/12/26 08:34:35;;;;;;;53.00;24.50;;;;;;;-6.41;79.99;100513.70;84673;1324;23887;-71
2021/12/26 08:36:44;;;;;;;49.40;23.80;;;;;;;-6.30;79.59;100515.25;84647;1331;22725;-71
2021/12/26 08:38:56;;;;;;;57.90;24.10;;;;;;;-6.23;79.39;100512.95;84649;1331;24248;-71
2021/12/26 08:41:05;;;;;;;52.50;24.00;;;;;;;-6.17;79.05;100513.61;84643;1331;22551;-72
2021/12/26 08:43:14;;;;;;;35.10;19.60;;;;;;;-6.14;79.00;100513.20;84652;1325;22703;-73
2021/12/26 08:45:25;;;;;;;50.40;23.00;;;;;;;-6.10;78.84;100513.86;84657;1329;22598;-71
2021/12/26 08:47:37;;;;;;;49.50;23.80;;;;;;;-6.05;78.59;100516.91;84648;1328;24598;-67
2021/12/26 08:49:47;;;;;;;53.30;24.60;;;;;;;-6.03;78.47;100520.35;84672;1329;22584;-66
2021/12/26 08:51:57;;;;;;;47.40;23.40;;;;;;;-6.02;78.46;100522.95;84636;1328;22668;-66
2021/12/26 08:54:09;;;;;;;49.10;23.70;;;;;;;-5.97;78.46;100525.63;84635;1331;24833;-71
2021/12/26 08:56:18;;;;;;;45.40;23.10;;;;;;;-5.92;78.43;100523.74;83931;1328;1003130;-72
2021/12/26 08:58:28;;;;;;;53.50;26.90;;;;;;;-5.83;78.45;100523.30;84655;1328;22596;-73
2021/12/26 09:00:38;;;;;;;49.50;22.20;;;;;;;-5.75;78.24;100523.91;84691;1329;25275;-72
2021/12/26 09:02:53;;;;;;;39.40;19.40;;;;;;;-5.71;78.09;100527.75;84636;1329;22772;-72
2021/12/26 09:05:07;;;;;;;45.70;23.90;;;;;;;-5.72;77.94;100528.41;84678;1328;22589;-72
2021/12/26 09:07:17;;;;;;;49.20;25.30;;;;;;;-5.72;77.99;100532.98;84657;1331;22607;-76
2021/12/26 09:09:30;;;;;;;55.90;25.30;;;;;;;-5.74;77.71;100537.19;84653;1329;22623;-67
2021/12/26 09:11:40;;;;;;;60.80;24.50;;;;;;;-5.74;77.72;100531.76;84642;1328;22581;-71
2021/12/26 09:13:50;;;;;;;49.60;25.00;;;;;;;-5.73;77.77;100535.50;84640;1328;25277;-71
2021/12/26 09:15:59;;;;;;;51.50;24.60;;;;;;;-5.73;77.70;100526.85;84644;1330;22601;-72
2021/12/26 09:18:09;;;;;;;37.00;18.50;;;;;;;-5.72;77.53;100526.71;84632;1327;24051;-72
2021/12/26 09:20:22;;;;;;;56.20;26.70;;;;;;;-5.68;77.51;100525.96;84652;1331;22651;-72
2021/12/26 09:22:37;;;;;;;57.60;27.00;;;;;;;-5.64;77.17;100520.63;84619;1329;22966;-74
2021/12/26 09:24:53;;;;;;;57.60;27.10;;;;;;;-5.63;77.26;100517.60;83846;1330;1003772;-72
2021/12/26 09:27:12;;;;;;;50.20;26.30;;;;;;;-5.58;77.10;100515.40;84511;1334;22618;-72
2021/12/26 09:29:21;;;;;;;46.70;24.10;;;;;;;-5.44;77.04;100510.19;84274;1330;1002561;-73
2021/12/26 09:31:30;;;;;;;52.90;24.10;;;;;;;-5.27;76.34;100510.84;84584;1333;22600;-73
2021/12/26 09:33:40;;;;;;;56.80;26.00;;;;;;;-5.09;75.47;100510.48;84576;1330;23890;-74
2021/12/26 09:35:49;;;;;;;57.90;26.30;;;;;;;-4.94;75.19;100509.02;84567;1333;22636;-72
2021/12/26 09:37:59;;;;;;;49.70;26.20;;;;;;;-4.80;74.78;100510.06;84609;1330;22660;-72
2021/12/26 09:40:11;;;;;;;51.50;24.40;;;;;;;-4.71;74.34;100511.52;84634;1329;22605;-71
2021/12/26 09:42:21;;;;;;;55.00;25.30;;;;;;;-4.72;74.41;100515.70;84211;1329;1003142;-71
2021/12/26 09:44:30;;;;;;;51.00;24.60;;;;;;;-4.76;73.94;100518.00;83827;1327;1003283;-73
2021/12/26 09:46:39;;;;;;;48.50;24.30;;;;;;;-4.80;74.10;100520.63;84635;1330;22665;-68
2021/12/26 09:48:48;;;;;;;56.70;27.00;;;;;;;-4.75;73.87;100520.06;83886;1327;1003119;-73
2021/12/26 09:50:57;;;;;;;54.70;24.80;;;;;;;-4.63;73.82;100517.15;83913;1328;1003271;-72
2021/12/26 09:53:12;;;;;;;42.30;23.50;;;;;;;-4.52;73.57;100518.12;84603;1329;22689;-70
2021/12/26 09:55:22;;;;;;;53.70;26.30;;;;;;;-4.52;73.09;100525.27;83924;1329;1003824;-73